Time;durP1;ratioP1;P1;durP2;ratioP2;P2;SDS_P1;SDS_P2;PMS_P1;PMS_P2;Temp;Humidity;BMP_temperature;BMP_pressure;BME280_temperature;BME280_humidity;BME280_pressure;Samples;Min_cycle;Max_cycle;Signal;HPM_P1;HPM_P2
2021/12/09 00:02:01;;;;;;;6.53;1.92;;;;;;;;;;6296637;22;20533;-43
2021/12/09 00:04:30;;;;;;;5.90;2.25;;;;;;;;;;6295847;22;20003;-44
2021/12/09 00:06:56;;;;;;;11.10;2.10;;;;;;;;;;6296165;22;20019;-43
2021/12/09 00:09:21;;;;;;;11.38;2.90;;;;;;;;;;6296002;22;20356;-43
2021/12/09 00:11:49;;;;;;;9.05;2.05;;;;;;;;;;6295148;22;20103;-44
2021/12/09 00:14:16;;;;;;;6.53;2.03;;;;;;;;;;6295732;22;20008;-44
2021/12/09 00:16:41;;;;;;;7.03;1.58;;;;;;;;;;6297877;22;20007;-44
2021/12/09 00:19:06;;;;;;;8.80;2.22;;;;;;;;;;6296140;22;20019;-43
2021/12/09 00:21:32;;;;;;;6.90;2.17;;;;;;;;;;6296865;22;20014;-43
2021/12/09 00:23:57;;;;;;;4.75;2.58;;;;;;;;;;6297909;22;20015;-43
2021/12/09 00:26:23;;;;;;;5.78;1.73;;;;;;;;;;6296321;22;20014;-44
2021/12/09 00:28:48;;;;;;;6.40;1.60;;;;;;;;;;6296222;22;20423;-44
2021/12/09 00:31:15;;;;;;;5.78;1.80;;;;;;;;;;6296089;22;20462;-42
2021/12/09 00:33:43;;;;;;;5.40;1.27;;;;;;;;;;6296447;22;20015;-46
2021/12/09 00:36:09;;;;;;;3.22;1.48;;;;;;;;;;6297670;22;20090;-43
2021/12/09 00:38:38;;;;;;;5.10;2.58;;;;;;;;;;6295145;22;20373;-48
2021/12/09 00:41:08;;;;;;;7.90;1.88;;;;;;;;;;6297303;22;20034;-45
2021/12/09 00:43:33;;;;;;;;;;;;;;;;;;6295996;22;20023;-44
2021/12/09 00:45:58;;;;;;;3.38;1.55;;;;;;;;;;6297220;22;19902;-44
2021/12/09 00:48:25;;;;;;;3.50;1.48;;;;;;;;;;6295387;22;20294;-44
2021/12/09 00:50:50;;;;;;;5.57;1.60;;;;;;;;;;6297359;22;20023;-44
2021/12/09 00:53:15;;;;;;;4.70;1.77;;;;;;;;;;6295635;22;20027;-44
2021/12/09 00:55:41;;;;;;;6.03;1.80;;;;;;;;;;6296903;22;20007;-44
2021/12/09 00:58:06;;;;;;;3.33;1.58;;;;;;;;;;6297423;22;20027;-45
2021/12/09 01:00:31;;;;;;;6.65;1.70;;;;;;;;;;6295299;22;20034;-44
2021/12/09 01:02:58;;;;;;;6.40;1.58;;;;;;;;;;6297538;22;20451;-43
2021/12/09 01:05:24;;;;;;;6.57;2.13;;;;;;;;;;6295055;22;20040;-46
2021/12/09 01:07:49;;;;;;;7.10;1.70;;;;;;;;;;6296786;22;20455;-44
2021/12/09 01:10:15;;;;;;;7.15;1.63;;;;;;;;;;6295098;22;20245;-43
2021/12/09 01:12:40;;;;;;;7.00;1.85;;;;;;;;;;6296973;22;20011;-43
2021/12/09 01:15:07;;;;;;;4.13;1.55;;;;;;;;;;6296561;22;20018;-43
2021/12/09 01:17:32;;;;;;;4.88;1.50;;;;;;;;;;6295905;22;20049;-46
2021/12/09 01:19:59;;;;;;;6.65;2.13;;;;;;;;;;6296858;22;20690;-43
2021/12/09 01:22:31;;;;;;;6.60;1.33;;;;;;;;;;6296187;22;20216;-46
2021/12/09 01:24:57;;;;;;;4.70;1.48;;;;;;;;;;6296408;22;20007;-45
2021/12/09 01:27:22;;;;;;;10.75;2.25;;;;;;;;;;6295270;22;20459;-45
2021/12/09 01:29:53;;;;;;;3.30;1.60;;;;;;;;;;6296466;22;20512;-44
2021/12/09 01:32:25;;;;;;;6.75;1.90;;;;;;;;;;6295744;22;20030;-43
2021/12/09 01:34:50;;;;;;;6.07;1.33;;;;;;;;;;6296517;22;20007;-45
2021/12/09 01:37:16;;;;;;;1.70;1.17;;;;;;;;;;6295923;22;20019;-44
2021/12/09 01:39:41;;;;;;;2.20;1.42;;;;;;;;;;6295690;22;20100;-44
2021/12/09 01:42:06;;;;;;;4.55;1.67;;;;;;;;;;6295295;22;20014;-44
2021/12/09 01:44:32;;;;;;;6.35;1.90;;;;;;;;;;6296378;22;20046;-43
2021/12/09 01:46:57;;;;;;;5.03;1.48;;;;;;;;;;6295845;22;20007;-45
2021/12/09 01:49:22;;;;;;;4.40;1.80;;;;;;;;;;6296215;22;20037;-45
2021/12/09 01:51:48;;;;;;;9.10;1.92;;;;;;;;;;6295234;22;20042;-45
2021/12/09 01:54:14;;;;;;;8.63;1.60;;;;;;;;;;6296159;22;20719;-43
2021/12/09 01:56:39;;;;;;;3.00;1.60;;;;;;;;;;6296738;22;20045;-45
2021/12/09 01:59:05;;;;;;;6.82;2.08;;;;;;;;;;6296568;22;20015;-46
2021/12/09 02:01:32;;;;;;;4.53;1.27;;;;;;;;;;6295858;22;20435;-44
2021/12/09 02:03:57;;;;;;;2.78;1.58;;;;;;;;;;6296316;22;20011;-44
2021/12/09 02:06:24;;;;;;;4.90;2.28;;;;;;;;;;6295673;22;20061;-44
2021/12/09 02:08:50;;;;;;;6.57;1.83;;;;;;;;;;6293920;22;20447;-43
2021/12/09 02:11:16;;;;;;;3.63;1.40;;;;;;;;;;6294010;22;20072;-44
2021/12/09 02:13:41;;;;;;;10.10;1.80;;;;;;;;;;6294942;22;20014;-43
2021/12/09 02:16:08;;;;;;;8.50;1.48;;;;;;;;;;6296307;22;20019;-47
2021/12/09 02:18:33;;;;;;;6.70;1.13;;;;;;;;;;6295733;22;20019;-45
2021/12/09 02:21:05;;;;;;;5.50;1.20;;;;;;;;;;6294461;22;20809;-45
2021/12/09 02:23:30;;;;;;;2.80;1.20;;;;;;;;;;6295913;22;20092;-49
2021/12/09 02:25:56;;;;;;;7.20;1.73;;;;;;;;;;6295858;22;20011;-44
2021/12/09 02:28:21;;;;;;;4.22;1.65;;;;;;;;;;6294386;22;20643;-44
2021/12/09 02:30:46;;;;;;;2.53;1.77;;;;;;;;;;6295205;22;20747;-44
2021/12/09 02:33:11;;;;;;;3.47;2.75;;;;;;;;;;6292571;22;20066;-44
2021/12/09 02:35:38;;;;;;;7.40;1.75;;;;;;;;;;6296435;22;20015;-44
2021/12/09 02:38:03;;;;;;;6.57;1.50;;;;;;;;;;6296035;22;20030;-43
2021/12/09 02:40:30;;;;;;;4.82;2.50;;;;;;;;;;6292351;22;20014;-43
2021/12/09 02:42:55;;;;;;;5.30;1.25;;;;;;;;;;6296262;22;20068;-43
2021/12/09 02:45:21;;;;;;;4.70;1.30;;;;;;;;;;6295807;22;20011;-45
2021/12/09 02:47:46;;;;;;;2.80;1.23;;;;;;;;;;6294600;22;20011;-43
2021/12/09 02:50:11;;;;;;;11.13;1.92;;;;;;;;;;6296877;22;20463;-44
2021/12/09 02:52:38;;;;;;;8.10;2.88;;;;;;;;;;6293972;22;20019;-44
2021/12/09 02:55:04;;;;;;;5.88;1.83;;;;;;;;;;6294957;22;20064;-44
2021/12/09 02:57:29;;;;;;;2.28;1.35;;;;;;;;;;6294864;22;20430;-46
2021/12/09 02:59:54;;;;;;;6.78;1.63;;;;;;;;;;6296362;22;20014;-44
2021/12/09 03:02:20;;;;;;;4.35;1.30;;;;;;;;;;6295256;22;20036;-44
2021/12/09 03:04:47;;;;;;;3.60;1.20;;;;;;;;;;6294886;22;20003;-44
2021/12/09 03:07:36;;;;;;;3.30;1.45;;;;;;;;;;6296090;22;20011;-43
2021/12/09 03:10:09;;;;;;;5.00;1.42;;;;;;;;;;6282415;22;20011;-43
2021/12/09 03:12:38;;;;;;;5.90;1.50;;;;;;;;;;6294288;22;20008;-44
2021/12/09 03:15:04;;;;;;;5.03;1.60;;;;;;;;;;6295971;22;20015;-44
2021/12/09 03:17:30;;;;;;;3.30;1.38;;;;;;;;;;6295940;22;20022;-44
2021/12/09 03:19:55;;;;;;;4.82;1.35;;;;;;;;;;6291398;22;20019;-44
2021/12/09 03:22:20;;;;;;;2.30;1.13;;;;;;;;;;6295719;22;20325;-45
2021/12/09 03:24:46;;;;;;;3.17;1.58;;;;;;;;;;6296248;22;20023;-43
2021/12/09 03:27:11;;;;;;;4.43;1.65;;;;;;;;;;6295696;22;20084;-44
2021/12/09 03:29:38;;;;;;;3.50;1.48;;;;;;;;;;6295568;22;20011;-43
2021/12/09 03:32:04;;;;;;;5.38;1.55;;;;;;;;;;6295341;22;20023;-44
2021/12/09 03:34:30;;;;;;;3.72;1.45;;;;;;;;;;6294858;22;20011;-45
2021/12/09 03:36:56;;;;;;;4.00;1.65;;;;;;;;;;6294203;22;20019;-44
2021/12/09 03:39:22;;;;;;;3.03;1.25;;;;;;;;;;6295916;22;20015;-46
2021/12/09 03:41:52;;;;;;;6.70;1.85;;;;;;;;;;6297052;22;20042;-43
2021/12/09 03:44:18;;;;;;;5.28;1.73;;;;;;;;;;6295254;22;20415;-44
2021/12/09 03:46:43;;;;;;;1.80;1.50;;;;;;;;;;6296798;22;20023;-43
2021/12/09 03:49:09;;;;;;;9.82;1.92;;;;;;;;;;6296777;22;20012;-44
2021/12/09 03:51:35;;;;;;;4.40;1.73;;;;;;;;;;6297102;22;20030;-44
2021/12/09 03:54:01;;;;;;;3.90;1.33;;;;;;;;;;6296679;22;20023;-43
2021/12/09 03:56:26;;;;;;;5.72;1.42;;;;;;;;;;6297249;22;20081;-43
2021/12/09 03:58:52;;;;;;;5.70;1.92;;;;;;;;;;6296989;22;20726;-44
2021/12/09 04:01:17;;;;;;;7.20;3.05;;;;;;;;;;6297283;22;20015;-43
2021/12/09 04:03:42;;;;;;;3.92;1.60;;;;;;;;;;6296563;22;20019;-44
2021/12/09 04:06:08;;;;;;;6.15;1.95;;;;;;;;;;6297763;22;20003;-44
2021/12/09 04:08:33;;;;;;;7.15;1.55;;;;;;;;;;6295358;22;20011;-44
2021/12/09 04:10:58;;;;;;;3.75;1.55;;;;;;;;;;6297998;22;20350;-44
2021/12/09 04:13:24;;;;;;;7.07;1.55;;;;;;;;;;6294386;22;20057;-44
2021/12/09 04:15:49;;;;;;;3.45;1.50;;;;;;;;;;6295988;22;20081;-47
2021/12/09 04:18:14;;;;;;;5.05;2.08;;;;;;;;;;6295478;22;20023;-44
2021/12/09 04:20:40;;;;;;;4.50;1.85;;;;;;;;;;6296654;22;20016;-48
2021/12/09 04:23:05;;;;;;;3.03;1.30;;;;;;;;;;6298163;22;20065;-47
2021/12/09 04:25:31;;;;;;;2.33;1.20;;;;;;;;;;6293792;22;20015;-43
2021/12/09 04:27:56;;;;;;;3.58;1.50;;;;;;;;;;6295156;22;20084;-46
2021/12/09 04:30:22;;;;;;;3.40;1.50;;;;;;;;;;6296054;22;20033;-45
2021/12/09 04:32:48;;;;;;;4.57;2.63;;;;;;;;;;6297887;22;20019;-46
2021/12/09 04:35:14;;;;;;;4.32;1.65;;;;;;;;;;6295437;22;20022;-44
2021/12/09 04:37:39;;;;;;;4.13;1.45;;;;;;;;;;6296260;22;20298;-44
2021/12/09 04:40:06;;;;;;;6.07;1.98;;;;;;;;;;6297235;22;20042;-45
2021/12/09 04:42:32;;;;;;;4.82;1.55;;;;;;;;;;6293557;22;20412;-46
2021/12/09 04:44:57;;;;;;;6.55;1.73;;;;;;;;;;6297588;22;20050;-45
2021/12/09 04:47:22;;;;;;;8.38;1.35;;;;;;;;;;6296149;22;20103;-45
2021/12/09 04:49:47;;;;;;;6.82;1.88;;;;;;;;;;6297041;22;20011;-47
2021/12/09 04:52:13;;;;;;;6.50;2.08;;;;;;;;;;6297149;22;20031;-42
2021/12/09 04:54:41;;;;;;;6.45;1.60;;;;;;;;;;6297093;22;20037;-44
2021/12/09 04:57:06;;;;;;;2.42;1.48;;;;;;;;;;6297300;22;20022;-44
2021/12/09 04:59:32;;;;;;;7.05;1.45;;;;;;;;;;6295610;22;20015;-43
2021/12/09 05:01:58;;;;;;;9.82;1.70;;;;;;;;;;6297329;22;20073;-46
2021/12/09 05:04:23;;;;;;;3.88;1.10;;;;;;;;;;6294329;22;20015;-44
2021/12/09 05:06:48;;;;;;;6.55;3.55;;;;;;;;;;6295856;22;20038;-45
2021/12/09 05:09:17;;;;;;;5.50;1.65;;;;;;;;;;6296166;22;20369;-42
2021/12/09 05:14:08;;;;;;;3.05;1.33;;;;;;;;;;6297545;22;20232;-46
2021/12/09 05:16:33;;;;;;;5.65;1.70;;;;;;;;;;6295801;22;20019;-45
2021/12/09 05:18:59;;;;;;;6.25;1.55;;;;;;;;;;6294831;22;20022;-44
2021/12/09 05:21:27;;;;;;;4.65;1.45;;;;;;;;;;6296412;22;20011;-46
2021/12/09 05:23:52;;;;;;;6.13;1.70;;;;;;;;;;6296723;22;20026;-44
2021/12/09 05:26:19;;;;;;;6.65;1.85;;;;;;;;;;6296998;22;20011;-44
2021/12/09 05:28:52;;;;;;;6.85;2.22;;;;;;;;;;6295151;22;20351;-43
2021/12/09 05:34:01;;;;;;;4.25;1.70;;;;;;;;;;6296653;22;20023;-44
2021/12/09 05:36:26;;;;;;;6.63;1.85;;;;;;;;;;6296354;22;20007;-44
2021/12/09 05:38:52;;;;;;;10.90;1.70;;;;;;;;;;6295884;22;20023;-45
2021/12/09 05:41:17;;;;;;;6.20;1.30;;;;;;;;;;6295556;22;20004;-44
2021/12/09 05:43:43;;;;;;;4.95;1.85;;;;;;;;;;6296208;22;20018;-44
2021/12/09 05:46:08;;;;;;;4.97;1.50;;;;;;;;;;6296332;22;20015;-43
2021/12/09 05:48:35;;;;;;;4.80;1.63;;;;;;;;;;6294829;22;20018;-44
2021/12/09 05:51:00;;;;;;;12.57;2.08;;;;;;;;;;6296374;22;20011;-42
2021/12/09 05:53:25;;;;;;;5.28;2.13;;;;;;;;;;6294830;22;20049;-45
2021/12/09 05:55:50;;;;;;;3.33;1.45;;;;;;;;;;6295533;22;20313;-43
2021/12/09 05:58:17;;;;;;;5.60;2.22;;;;;;;;;;6295584;22;20045;-44
2021/12/09 06:00:43;;;;;;;8.35;2.03;;;;;;;;;;6296666;22;20022;-44
2021/12/09 06:03:08;;;;;;;8.30;2.05;;;;;;;;;;6296371;22;20081;-44
2021/12/09 06:05:34;;;;;;;3.95;1.55;;;;;;;;;;6295293;22;20427;-44
2021/12/09 06:07:59;;;;;;;4.28;1.63;;;;;;;;;;6295319;22;20014;-44
2021/12/09 06:10:25;;;;;;;3.38;1.10;;;;;;;;;;6294913;22;20038;-48
2021/12/09 06:12:50;;;;;;;7.47;2.28;;;;;;;;;;6296796;22;20011;-44
2021/12/09 06:15:15;;;;;;;3.78;1.33;;;;;;;;;;6294612;22;20080;-45
2021/12/09 06:17:40;;;;;;;7.50;1.80;;;;;;;;;;6295865;22;20099;-47
2021/12/09 06:20:06;;;;;;;4.70;1.48;;;;;;;;;;6296456;22;20443;-44
2021/12/09 06:22:31;;;;;;;7.95;1.50;;;;;;;;;;6295150;22;20036;-43
2021/12/09 06:24:57;;;;;;;2.83;1.88;;;;;;;;;;6296856;22;20011;-44
2021/12/09 06:27:22;;;;;;;7.15;2.35;;;;;;;;;;6294538;22;20090;-46
2021/12/09 06:29:47;;;;;;;3.30;1.70;;;;;;;;;;6296476;22;20022;-44
2021/12/09 06:32:13;;;;;;;8.50;1.83;;;;;;;;;;6295561;22;20007;-42
2021/12/09 06:34:38;;;;;;;3.85;1.33;;;;;;;;;;6295403;22;20488;-47
2021/12/09 06:37:03;;;;;;;3.42;1.63;;;;;;;;;;6295918;22;20486;-46
2021/12/09 06:39:29;;;;;;;3.97;1.60;;;;;;;;;;6295347;22;20003;-44
2021/12/09 06:41:54;;;;;;;5.03;1.75;;;;;;;;;;6295936;22;20019;-48
2021/12/09 06:44:19;;;;;;;6.90;1.85;;;;;;;;;;6292830;22;20015;-46
2021/12/09 06:46:44;;;;;;;5.40;1.55;;;;;;;;;;6296166;22;20015;-44
2021/12/09 06:49:10;;;;;;;9.82;2.03;;;;;;;;;;6295769;22;20019;-44
2021/12/09 06:51:35;;;;;;;6.97;1.90;;;;;;;;;;6295923;22;20034;-43
2021/12/09 06:54:00;;;;;;;7.70;2.05;;;;;;;;;;6296030;22;20023;-45
2021/12/09 06:56:27;;;;;;;6.25;2.13;;;;;;;;;;6294803;22;20016;-44
2021/12/09 06:58:52;;;;;;;6.53;1.75;;;;;;;;;;6292481;22;20352;-46
2021/12/09 07:01:18;;;;;;;4.32;2.03;;;;;;;;;;6296079;22;20087;-46
2021/12/09 07:03:43;;;;;;;5.85;1.95;;;;;;;;;;6295660;22;20022;-45
2021/12/09 07:06:11;;;;;;;8.32;2.30;;;;;;;;;;6294934;22;20007;-44
2021/12/09 07:08:44;;;;;;;6.28;1.27;;;;;;;;;;6295624;22;20007;-44
2021/12/09 07:11:09;;;;;;;5.85;1.60;;;;;;;;;;6294591;22;20015;-45
2021/12/09 07:13:34;;;;;;;4.57;1.80;;;;;;;;;;6295613;22;20083;-46
2021/12/09 07:16:00;;;;;;;7.65;1.70;;;;;;;;;;6297407;22;20038;-46
2021/12/09 07:18:25;;;;;;;3.47;1.90;;;;;;;;;;6298046;22;20506;-44
2021/12/09 07:20:52;;;;;;;4.07;1.45;;;;;;;;;;6296958;22;20499;-43
2021/12/09 07:23:17;;;;;;;3.47;1.40;;;;;;;;;;6296645;22;20058;-45
2021/12/09 07:25:42;;;;;;;7.18;1.95;;;;;;;;;;6296302;22;20447;-47
2021/12/09 07:28:07;;;;;;;5.97;1.90;;;;;;;;;;6298405;22;20015;-45
2021/12/09 07:30:33;;;;;;;5.38;1.67;;;;;;;;;;6296883;22;20077;-44
2021/12/09 07:32:58;;;;;;;4.88;1.73;;;;;;;;;;6296897;22;20019;-44
2021/12/09 07:35:30;;;;;;;6.28;1.75;;;;;;;;;;6296838;22;20007;-47
2021/12/09 07:37:55;;;;;;;4.95;2.47;;;;;;;;;;6297934;22;20474;-44
2021/12/09 07:40:20;;;;;;;2.70;1.85;;;;;;;;;;6297572;22;20011;-43
2021/12/09 07:42:46;;;;;;;5.15;2.05;;;;;;;;;;6296583;22;20015;-44
2021/12/09 07:45:12;;;;;;;5.22;1.80;;;;;;;;;;6297181;22;20544;-46
2021/12/09 07:47:37;;;;;;;3.25;1.90;;;;;;;;;;6297438;22;20014;-44
2021/12/09 07:50:03;;;;;;;8.98;1.75;;;;;;;;;;6297202;22;20008;-46
2021/12/09 07:52:29;;;;;;;5.10;1.70;;;;;;;;;;6296665;22;20023;-44
2021/12/09 07:54:54;;;;;;;3.85;1.40;;;;;;;;;;6297498;22;20329;-44
2021/12/09 07:57:19;;;;;;;6.65;1.65;;;;;;;;;;6297086;22;20019;-44
2021/12/09 07:59:44;;;;;;;10.90;2.33;;;;;;;;;;6297346;22;20105;-46
2021/12/09 08:02:11;;;;;;;6.85;2.00;;;;;;;;;;6297570;22;20020;-44
2021/12/09 08:04:37;;;;;;;6.65;1.70;;;;;;;;;;6296698;22;20007;-43
2021/12/09 08:07:02;;;;;;;10.45;2.42;;;;;;;;;;6297171;22;20087;-43
2021/12/09 08:09:27;;;;;;;7.35;2.22;;;;;;;;;;6291663;22;20015;-45
2021/12/09 08:11:53;;;;;;;2.67;1.75;;;;;;;;;;6297247;22;20072;-43
2021/12/09 08:14:19;;;;;;;5.80;2.17;;;;;;;;;;6296335;22;20011;-44
2021/12/09 08:16:44;;;;;;;6.75;1.88;;;;;;;;;;6296771;22;20344;-44
2021/12/09 08:19:11;;;;;;;3.22;1.67;;;;;;;;;;6296362;22;20026;-44
2021/12/09 08:21:37;;;;;;;6.38;2.10;;;;;;;;;;6297794;22;20083;-44
2021/12/09 08:24:06;;;;;;;4.53;1.63;;;;;;;;;;6296572;22;20014;-48
2021/12/09 08:26:32;;;;;;;5.20;1.77;;;;;;;;;;6296789;22;20039;-43
2021/12/09 08:28:57;;;;;;;4.72;1.67;;;;;;;;;;6296418;22;20343;-43
2021/12/09 08:31:23;;;;;;;8.27;2.17;;;;;;;;;;6295490;22;20015;-43
2021/12/09 08:33:48;;;;;;;6.38;1.80;;;;;;;;;;6296071;22;20019;-46
2021/12/09 08:36:13;;;;;;;8.13;2.28;;;;;;;;;;6295139;22;20098;-44
2021/12/09 08:38:39;;;;;;;3.38;1.40;;;;;;;;;;6297206;22;20019;-45
2021/12/09 08:41:04;;;;;;;5.18;1.63;;;;;;;;;;6297131;22;20017;-44
2021/12/09 08:43:29;;;;;;;6.22;1.95;;;;;;;;;;6295724;22;20011;-45
2021/12/09 08:45:55;;;;;;;2.45;1.20;;;;;;;;;;6292110;22;20003;-43
2021/12/09 08:48:22;;;;;;;3.72;1.55;;;;;;;;;;6293052;22;20072;-44
2021/12/09 08:50:47;;;;;;;8.05;1.83;;;;;;;;;;6293390;22;20474;-46
2021/12/09 08:53:15;;;;;;;4.13;1.58;;;;;;;;;;6292717;22;20096;-44
2021/12/09 08:55:40;;;;;;;5.15;1.70;;;;;;;;;;6291733;22;20494;-43
2021/12/09 08:58:06;;;;;;;3.20;1.65;;;;;;;;;;6293703;22;20331;-43
2021/12/09 09:00:33;;;;;;;2.45;1.20;;;;;;;;;;6290343;22;20018;-43
2021/12/09 09:02:58;;;;;;;7.22;1.85;;;;;;;;;;6289197;22;20497;-43
2021/12/09 09:05:24;;;;;;;9.07;1.73;;;;;;;;;;6288497;22;20029;-44
2021/12/09 09:07:49;;;;;;;9.57;2.28;;;;;;;;;;6288846;22;20443;-43
2021/12/09 09:10:17;;;;;;;5.35;1.83;;;;;;;;;;6289463;22;20447;-44
2021/12/09 09:12:42;;;;;;;8.75;2.13;;;;;;;;;;6288654;22;20011;-43
2021/12/09 09:15:09;;;;;;;4.68;2.03;;;;;;;;;;6288721;22;20397;-43
2021/12/09 09:17:35;;;;;;;5.07;1.58;;;;;;;;;;6291034;22;20073;-43
2021/12/09 09:20:00;;;;;;;3.30;1.45;;;;;;;;;;6289742;22;20015;-43
2021/12/09 09:22:26;;;;;;;7.50;1.85;;;;;;;;;;6287294;22;20467;-44
2021/12/09 09:24:51;;;;;;;3.80;1.55;;;;;;;;;;6289513;22;20015;-45
2021/12/09 09:27:17;;;;;;;3.78;1.20;;;;;;;;;;6289978;22;20478;-44
2021/12/09 09:29:43;;;;;;;7.10;1.88;;;;;;;;;;6289415;22;20444;-43
2021/12/09 09:32:11;;;;;;;12.90;2.53;;;;;;;;;;6289841;22;20097;-45
2021/12/09 09:34:36;;;;;;;4.13;1.70;;;;;;;;;;6288922;22;20142;-43
2021/12/09 09:37:01;;;;;;;5.00;1.45;;;;;;;;;;6289325;22;20038;-45
2021/12/09 09:39:29;;;;;;;6.63;1.65;;;;;;;;;;6290031;22;20019;-44
2021/12/09 09:42:01;;;;;;;4.38;1.67;;;;;;;;;;6290152;22;20065;-44
2021/12/09 09:44:44;;;;;;;6.57;2.17;;;;;;;;;;6288738;22;20038;-43
2021/12/09 09:47:09;;;;;;;7.93;2.28;;;;;;;;;;6288149;22;20081;-43
2021/12/09 09:49:35;;;;;;;7.72;2.08;;;;;;;;;;6289422;22;20519;-44
2021/12/09 09:52:00;;;;;;;7.10;2.05;;;;;;;;;;6290362;22;20611;-44
2021/12/09 09:54:26;;;;;;;6.88;1.63;;;;;;;;;;6288667;22;20026;-43
2021/12/09 09:56:51;;;;;;;4.60;1.88;;;;;;;;;;6289777;22;20011;-44
2021/12/09 09:59:17;;;;;;;5.97;1.98;;;;;;;;;;6288383;22;20340;-44
2021/12/09 10:01:44;;;;;;;8.02;1.95;;;;;;;;;;6290184;22;20011;-43
2021/12/09 10:04:11;;;;;;;9.10;2.17;;;;;;;;;;6289359;22;20096;-45
2021/12/09 10:06:37;;;;;;;5.22;1.77;;;;;;;;;;6288767;22;20011;-43
2021/12/09 10:09:05;;;;;;;5.07;2.50;;;;;;;;;;6289686;22;20015;-44
2021/12/09 10:11:30;;;;;;;6.63;1.50;;;;;;;;;;6289054;22;20073;-43
2021/12/09 10:14:07;;;;;;;2.80;1.65;;;;;;;;;;6289561;22;20015;-44
2021/12/09 10:16:34;;;;;;;4.82;1.77;;;;;;;;;;6288256;22;20015;-43
2021/12/09 10:18:59;;;;;;;3.55;1.50;;;;;;;;;;6290998;22;20034;-43
2021/12/09 10:21:27;;;;;;;6.47;2.10;;;;;;;;;;6289273;22;20007;-43
2021/12/09 10:23:59;;;;;;;6.60;1.60;;;;;;;;;;6289896;22;20470;-45
2021/12/09 10:26:29;;;;;;;4.20;2.30;;;;;;;;;;6288978;22;20178;-44
2021/12/09 10:29:05;;;;;;;7.70;2.15;;;;;;;;;;6288864;22;20182;-43
2021/12/09 10:31:34;;;;;;;8.40;1.67;;;;;;;;;;6288025;22;20014;-43
2021/12/09 10:37:01;;;;;;;4.63;2.33;;;;;;;;;;6225063;22;20235;-43
2021/12/09 10:39:29;;;;;;;4.57;1.65;;;;;;;;;;6289644;22;20030;-43
2021/12/09 10:41:56;;;;;;;3.17;1.92;;;;;;;;;;6286163;22;20014;-44
2021/12/09 10:44:44;;;;;;;7.20;2.10;;;;;;;;;;6288071;22;20085;-43
2021/12/09 10:47:14;;;;;;;7.40;1.98;;;;;;;;;;6289434;22;20166;-43
2021/12/09 10:49:47;;;;;;;9.57;2.25;;;;;;;;;;6290735;22;20014;-44
2021/12/09 10:52:23;;;;;;;4.93;2.08;;;;;;;;;;6291207;22;20110;-43
2021/12/09 10:54:48;;;;;;;4.93;2.58;;;;;;;;;;6292014;22;20141;-46
2021/12/09 10:57:23;;;;;;;5.18;1.85;;;;;;;;;;6289441;22;20094;-44
2021/12/09 10:59:48;;;;;;;9.20;2.38;;;;;;;;;;6291852;22;20455;-43
2021/12/09 11:02:14;;;;;;;3.97;1.95;;;;;;;;;;6291383;22;20017;-44
2021/12/09 11:04:39;;;;;;;10.23;2.55;;;;;;;;;;6290863;22;20517;-45
2021/12/09 11:07:20;;;;;;;8.20;1.90;;;;;;;;;;6290847;22;20015;-44
2021/12/09 11:09:46;;;;;;;9.90;3.65;;;;;;;;;;6291702;22;20015;-44
2021/12/09 11:12:28;;;;;;;7.38;1.60;;;;;;;;;;6289620;22;20023;-45
2021/12/09 11:15:00;;;;;;;6.63;2.50;;;;;;;;;;6290560;22;20027;-44
2021/12/09 11:17:37;;;;;;;3.65;1.73;;;;;;;;;;6289071;22;20337;-43
2021/12/09 11:20:04;;;;;;;4.88;1.90;;;;;;;;;;6290907;22;20027;-44
2021/12/09 11:22:30;;;;;;;7.55;3.17;;;;;;;;;;6291119;22;20000;-43
2021/12/09 11:25:03;;;;;;;8.07;1.60;;;;;;;;;;6290024;22;20073;-44
2021/12/09 11:27:30;;;;;;;5.80;2.10;;;;;;;;;;6289187;22;20014;-44
2021/12/09 11:30:07;;;;;;;5.80;1.63;;;;;;;;;;6291290;22;20017;-45
2021/12/09 11:35:16;;;;;;;7.95;3.17;;;;;;;;;;6291543;22;20008;-44
2021/12/09 11:37:48;;;;;;;8.65;1.60;;;;;;;;;;6289215;22;20096;-43
2021/12/09 11:40:19;;;;;;;8.52;1.40;;;;;;;;;;6290237;22;20486;-44
2021/12/09 11:42:49;;;;;;;4.10;1.67;;;;;;;;;;6292258;22;20015;-43
2021/12/09 11:45:15;;;;;;;4.90;1.75;;;;;;;;;;6290569;22;20011;-44
2021/12/09 11:47:42;;;;;;;5.28;1.60;;;;;;;;;;6290145;22;20012;-44
2021/12/09 11:50:10;;;;;;;5.72;2.10;;;;;;;;;;6288250;22;20015;-44
2021/12/09 11:52:37;;;;;;;8.90;2.42;;;;;;;;;;6287867;22;20027;-45
2021/12/09 11:55:04;;;;;;;3.50;1.80;;;;;;;;;;6288669;22;20003;-47
2021/12/09 12:11:27;;;;;;;8.35;1.98;;;;;;;;;;6290581;22;20019;-45
2021/12/09 12:16:38;;;;;;;2.80;1.88;;;;;;;;;;6290322;22;20034;-44
2021/12/09 12:19:18;;;;;;;6.85;2.00;;;;;;;;;;6291314;22;20030;-43
2021/12/09 12:21:55;;;;;;;;;;;;;;;;;;6292314;22;20007;-43
2021/12/09 12:25:04;;;;;;;5.78;1.70;;;;;;;;;;6289633;22;19903;-45
2021/12/09 12:27:35;;;;;;;3.45;1.52;;;;;;;;;;6289916;22;20007;-44
2021/12/09 12:32:56;;;;;;;4.22;1.85;;;;;;;;;;6288443;22;20340;-44
2021/12/09 12:38:05;;;;;;;5.13;1.80;;;;;;;;;;6289854;22;20019;-43
2021/12/09 12:40:31;;;;;;;3.00;1.42;;;;;;;;;;6288213;22;20448;-43
2021/12/09 12:43:04;;;;;;;5.20;1.75;;;;;;;;;;6290347;22;20011;-44
2021/12/09 12:46:49;;;;;;;3.67;1.50;;;;;;;;;;6291182;22;20056;-42
2021/12/09 12:51:10;;;;;;;6.05;1.70;;;;;;;;;;6292814;22;20007;-44
2021/12/09 12:53:40;;;;;;;10.73;1.77;;;;;;;;;;6289420;22;20558;-43
2021/12/09 12:56:09;;;;;;;9.13;1.80;;;;;;;;;;6291207;22;20010;-45
2021/12/09 12:58:34;;;;;;;5.78;1.70;;;;;;;;;;6291601;22;20122;-44
2021/12/09 13:01:32;;;;;;;5.40;1.65;;;;;;;;;;6289021;22;20095;-43
2021/12/09 13:04:08;;;;;;;9.98;2.10;;;;;;;;;;6254781;22;20082;-43
2021/12/09 13:06:46;;;;;;;5.55;1.58;;;;;;;;;;6290597;22;20010;-43
2021/12/09 13:09:30;;;;;;;5.88;2.17;;;;;;;;;;6289996;22;20011;-44
2021/12/09 13:12:02;;;;;;;4.32;1.48;;;;;;;;;;6289801;22;20007;-44
2021/12/09 13:14:32;;;;;;;5.75;2.10;;;;;;;;;;6291903;22;20027;-43
2021/12/09 13:17:13;;;;;;;4.07;1.60;;;;;;;;;;6288802;22;20038;-43
2021/12/09 13:19:47;;;;;;;6.78;1.50;;;;;;;;;;6291039;22;20011;-44
2021/12/09 13:22:25;;;;;;;4.90;1.35;;;;;;;;;;6289566;22;20062;-44
2021/12/09 13:24:57;;;;;;;8.20;2.45;;;;;;;;;;6288222;22;20015;-43
2021/12/09 13:33:12;;;;;;;4.28;1.70;;;;;;;;;;6290216;22;20051;-43
2021/12/09 13:45:54;;;;;;;4.35;1.80;;;;;;;;;;6241573;22;20008;-45
2021/12/09 13:49:04;;;;;;;4.55;1.67;;;;;;;;;;6289855;22;20492;-44
2021/12/09 13:54:06;;;;;;;7.32;2.03;;;;;;;;;;6290340;22;20019;-44
2021/12/09 13:56:42;;;;;;;5.93;1.88;;;;;;;;;;6228134;22;20020;-44
2021/12/09 13:59:13;;;;;;;7.05;2.13;;;;;;;;;;6227081;22;20020;-42
2021/12/09 14:01:39;;;;;;;7.00;3.42;;;;;;;;;;6225854;22;20012;-42
2021/12/09 14:04:07;;;;;;;8.35;2.15;;;;;;;;;;6228570;22;20069;-46
2021/12/09 14:06:33;;;;;;;2.40;1.48;;;;;;;;;;6227409;22;20028;-44
2021/12/09 14:08:58;;;;;;;3.92;1.52;;;;;;;;;;6227113;22;20020;-43
2021/12/09 14:11:29;;;;;;;7.07;2.10;;;;;;;;;;6228497;22;20093;-44
2021/12/09 14:14:02;;;;;;;5.15;1.70;;;;;;;;;;6226929;22;20046;-43
2021/12/09 14:19:58;;;;;;;4.80;1.67;;;;;;;;;;6227662;22;20048;-44
2021/12/09 14:21:44;;;;;;;3.67;2.92;;;;;;;;;;6227728;22;20012;-45
2021/12/09 14:24:15;;;;;;;5.40;2.40;;;;;;;;;;6228605;22;20019;-43
2021/12/09 14:26:41;;;;;;;5.78;2.03;;;;;;;;;;6226892;22;20119;-45
2021/12/09 14:29:07;;;;;;;3.58;1.67;;;;;;;;;;6228776;22;20019;-44
2021/12/09 14:32:04;;;;;;;9.35;2.03;;;;;;;;;;6227564;22;20034;-46
2021/12/09 14:34:36;;;;;;;3.67;1.73;;;;;;;;;;6208687;22;20102;-44
2021/12/09 14:37:03;;;;;;;6.57;2.38;;;;;;;;;;6227046;22;20553;-43
2021/12/09 14:39:28;;;;;;;6.65;3.70;;;;;;;;;;6227268;22;20024;-45
2021/12/09 14:42:05;;;;;;;5.32;3.83;;;;;;;;;;6230267;22;20023;-43
2021/12/09 14:44:30;;;;;;;7.03;3.30;;;;;;;;;;6227581;22;20027;-43
2021/12/09 14:47:04;;;;;;;6.90;3.85;;;;;;;;;;6226427;22;20034;-43
2021/12/09 14:49:29;;;;;;;9.13;2.40;;;;;;;;;;6228154;22;20031;-44
2021/12/09 14:51:55;;;;;;;9.10;2.83;;;;;;;;;;6230904;22;20035;-43
2021/12/09 14:54:25;;;;;;;5.18;2.05;;;;;;;;;;6288668;22;20512;-42
2021/12/09 14:56:55;;;;;;;3.50;1.65;;;;;;;;;;6289011;22;20015;-43
2021/12/09 14:59:31;;;;;;;10.95;1.85;;;;;;;;;;6290146;22;20019;-43
2021/12/09 15:02:16;;;;;;;4.57;1.60;;;;;;;;;;6289486;22;20019;-43
2021/12/09 15:04:46;;;;;;;2.95;1.33;;;;;;;;;;6290888;22;20051;-43
2021/12/09 15:07:23;;;;;;;4.22;1.40;;;;;;;;;;6287419;22;20056;-45
2021/12/09 15:10:07;;;;;;;5.72;1.38;;;;;;;;;;6289096;22;20074;-43
2021/12/09 15:12:33;;;;;;;3.30;1.50;;;;;;;;;;6285433;22;20589;-44
2021/12/09 15:15:01;;;;;;;5.38;1.80;;;;;;;;;;6289918;22;20026;-43
2021/12/09 15:17:26;;;;;;;6.50;1.83;;;;;;;;;;6287858;22;20031;-43
2021/12/09 15:20:01;;;;;;;5.95;1.95;;;;;;;;;;6289614;22;20326;-43
2021/12/09 15:22:40;;;;;;;7.07;1.48;;;;;;;;;;6287217;22;20391;-46
2021/12/09 15:25:07;;;;;;;7.70;1.77;;;;;;;;;;6290271;22;20377;-43
2021/12/09 15:27:51;;;;;;;12.05;1.95;;;;;;;;;;6288490;22;20023;-43
2021/12/09 15:30:18;;;;;;;7.63;1.58;;;;;;;;;;6289259;22;20168;-44
2021/12/09 15:32:57;;;;;;;4.47;1.35;;;;;;;;;;6287139;22;20015;-46
2021/12/09 15:35:22;;;;;;;2.83;1.48;;;;;;;;;;6286881;22;20061;-46
2021/12/09 15:37:47;;;;;;;6.75;1.80;;;;;;;;;;6292260;22;20034;-44
2021/12/09 15:40:13;;;;;;;5.68;1.65;;;;;;;;;;6289142;22;20505;-45
2021/12/09 15:42:38;;;;;;;4.75;1.60;;;;;;;;;;6291729;22;20054;-45
2021/12/09 15:45:06;;;;;;;6.80;1.60;;;;;;;;;;6290201;22;20026;-46